Madigan Hospital, Washington
Current Conditions -  °F | °C
As of 5:58 PM on Wednesday 17 Dec 2014 (Local Time) from KGRF Reporting Station
Drizzle Drizzle  
Wind Chill: 44°   Ceiling: 3500
Heat Index: 44°   Visibility: 10mi
Dew Point: 44°   Wind: 1mph
Humidity: 99%   Direction: 110°ESE
Pressure: 29.88"   Gusts: NA
Location:  47.1056°N, 122.55°W
Report Text: KGRF 180158Z AUTO 11001KT 10SM DZ OVC035 07/07 A2988 RMK AO2 SLP124 P0000 T00680066 $
Loading
Personal Weather Stations






























Interactive Weather Map New forecast layout! Learn more

10-Day Weather Forecast

Advertisements
Track Severe Weather on mobile